createdAt,value
2023-03-07T00:01:12.187Z,32.50
2023-03-07T00:03:40.577Z,37.20
2023-03-07T00:06:12.181Z,38.83
2023-03-07T00:08:40.762Z,40.93
2023-03-07T00:11:10.704Z,41.03
2023-03-07T00:13:40.004Z,38.20
2023-03-07T00:16:10.386Z,38.50
2023-03-07T00:18:38.885Z,41.93
2023-03-07T00:21:10.820Z,46.23
2023-03-07T00:23:41.367Z,39.30
2023-03-07T00:26:13.234Z,38.97
2023-03-07T00:28:41.686Z,36.70
2023-03-07T00:31:12.232Z,40.73
2023-03-07T00:33:41.666Z,40.30
2023-03-07T00:36:14.598Z,41.77
2023-03-07T00:38:43.980Z,45.23
2023-03-07T00:41:14.339Z,44.63
2023-03-07T00:43:43.304Z,43.20
2023-03-07T00:46:11.895Z,39.23
2023-03-07T00:48:41.214Z,39.37
2023-03-07T00:51:12.689Z,43.23
2023-03-07T00:53:41.563Z,45.20
2023-03-07T00:56:15.280Z,41.83
2023-03-07T00:58:43.939Z,42.27
2023-03-07T01:01:15.085Z,48.93
2023-03-07T01:03:44.197Z,45.77
2023-03-07T01:06:16.596Z,46.07
2023-03-07T01:08:45.626Z,49.37
2023-03-07T01:11:14.589Z,41.83
2023-03-07T01:13:42.938Z,43.00
2023-03-07T01:16:14.024Z,42.20
2023-03-07T01:18:42.641Z,42.30
2023-03-07T01:21:18.535Z,46.20
2023-03-07T01:23:47.529Z,49.90
2023-03-07T01:26:17.289Z,46.47
2023-03-07T01:28:45.721Z,49.90
2023-03-07T01:31:14.625Z,42.07
2023-03-07T01:33:43.125Z,43.17
2023-03-07T01:36:20.149Z,49.10
2023-03-07T01:38:49.367Z,48.30
2023-03-07T01:41:18.678Z,42.20
2023-03-07T01:43:46.976Z,44.40
2023-03-07T01:46:42.597Z,42.10
2023-03-07T01:49:19.634Z,46.30
2023-03-07T01:51:52.464Z,47.07
2023-03-07T01:54:23.215Z,47.67
2023-03-07T01:56:52.232Z,49.87
2023-03-07T01:59:29.566Z,46.37
2023-03-07T02:02:01.462Z,50.33
2023-03-07T02:04:34.990Z,45.03
2023-03-07T02:07:05.118Z,44.97
2023-03-07T02:09:36.656Z,49.93
2023-03-07T02:12:05.795Z,52.03
2023-03-07T02:14:34.385Z,43.77
2023-03-07T02:17:02.775Z,41.93
2023-03-07T02:19:44.345Z,43.17
2023-03-07T02:22:17.457Z,41.30
2023-03-07T02:24:52.781Z,44.33
2023-03-07T02:27:23.598Z,43.40
2023-03-07T02:29:51.906Z,41.20
2023-03-07T02:32:20.357Z,39.87
2023-03-07T02:34:49.617Z,43.90
2023-03-07T02:37:22.571Z,41.20
2023-03-07T02:39:50.976Z,50.57
2023-03-07T02:42:23.517Z,37.77
2023-03-07T02:44:58.500Z,49.80
2023-03-07T02:47:27.241Z,42.50
2023-03-07T02:49:55.724Z,42.03
2023-03-07T02:52:24.729Z,37.87
2023-03-07T02:54:53.057Z,43.23
2023-03-07T02:57:22.838Z,48.40
2023-03-07T02:59:51.371Z,42.83
2023-03-07T03:02:19.746Z,43.40
2023-03-07T03:04:48.160Z,45.60
2023-03-07T03:07:16.513Z,46.87
2023-03-07T03:09:47.736Z,41.93
2023-03-07T03:12:16.169Z,41.70
2023-03-07T03:14:45.916Z,49.63
2023-03-07T03:17:14.578Z,46.10
2023-03-07T03:19:42.923Z,45.73
2023-03-07T03:22:11.257Z,45.93
2023-03-07T03:24:40.901Z,42.23
2023-03-07T03:27:09.482Z,47.93
2023-03-07T03:29:38.032Z,40.60
2023-03-07T03:32:08.726Z,46.27
2023-03-07T03:34:37.148Z,40.67
2023-03-07T03:37:07.999Z,39.90
2023-03-07T03:39:36.343Z,41.87
2023-03-07T03:42:06.305Z,39.57
2023-03-07T03:44:34.695Z,41.00
2023-03-07T03:47:03.013Z,49.70
2023-03-07T03:49:33.203Z,43.40
2023-03-07T03:52:01.716Z,45.37
2023-03-07T03:54:31.007Z,37.43
2023-03-07T03:56:59.420Z,42.30
2023-03-07T03:59:28.010Z,41.17
2023-03-07T04:01:56.307Z,42.20
2023-03-07T04:04:24.649Z,44.43
2023-03-07T04:06:54.436Z,45.50
2023-03-07T04:09:22.740Z,46.05
2023-03-07T04:11:51.118Z,44.83
2023-03-07T04:14:19.371Z,44.20
2023-03-07T04:16:48.666Z,44.73
2023-03-07T04:19:17.272Z,52.08
2023-03-07T04:21:45.659Z,47.73
2023-03-07T04:24:15.366Z,50.23
2023-03-07T04:26:43.781Z,47.07
2023-03-07T04:29:12.228Z,49.40
2023-03-07T04:31:40.572Z,47.47
2023-03-07T04:34:08.880Z,44.83
2023-03-07T04:36:37.192Z,40.43
2023-03-07T04:39:05.854Z,45.83
2023-03-07T04:41:35.709Z,47.63
2023-03-07T04:44:04.026Z,47.57
2023-03-07T04:46:32.433Z,46.27
2023-03-07T04:49:00.701Z,43.53
2023-03-07T04:51:29.060Z,45.70
2023-03-07T04:53:57.314Z,44.10
2023-03-07T04:56:26.110Z,44.43
2023-03-07T04:58:55.800Z,58.03
2023-03-07T05:01:24.270Z,51.73
2023-03-07T05:03:52.625Z,50.03
2023-03-07T05:06:21.227Z,45.50
2023-03-07T05:08:49.784Z,52.03
2023-03-07T05:11:18.140Z,43.77
2023-03-07T05:13:46.594Z,64.80
2023-03-07T05:16:17.720Z,46.37
2023-03-07T05:18:46.095Z,48.03
2023-03-07T05:21:14.505Z,51.80
2023-03-07T05:23:42.807Z,47.70
2023-03-07T05:26:11.209Z,58.87
2023-03-07T05:28:39.754Z,54.90
2023-03-07T05:31:08.153Z,57.90
2023-03-07T05:33:38.021Z,52.53
2023-03-07T05:36:06.854Z,58.47
2023-03-07T05:38:35.386Z,46.80
2023-03-07T05:41:03.714Z,45.60
2023-03-07T05:43:31.997Z,60.73
2023-03-07T05:46:00.473Z,51.13
2023-03-07T05:48:28.889Z,58.10
2023-03-07T05:51:00.635Z,58.50
2023-03-07T05:53:29.209Z,54.73
2023-03-07T05:55:59.497Z,64.23
2023-03-07T05:58:30.986Z,63.13
2023-03-07T06:00:59.418Z,56.47
2023-03-07T06:03:27.859Z,59.30
2023-03-07T06:05:56.175Z,57.07
2023-03-07T06:08:25.987Z,53.70
2023-03-07T06:10:55.546Z,56.57
2023-03-07T06:13:27.141Z,54.80
2023-03-07T06:15:56.721Z,54.73
2023-03-07T06:18:26.865Z,53.03
2023-03-07T06:20:59.828Z,57.13
2023-03-07T06:23:31.448Z,57.13
2023-03-07T06:25:59.996Z,57.80
2023-03-07T06:28:29.042Z,52.10
2023-03-07T06:30:58.382Z,53.40
2023-03-07T06:33:26.894Z,41.90
2023-03-07T06:35:55.269Z,51.53
2023-03-07T06:38:24.068Z,52.47
2023-03-07T06:40:58.076Z,53.13
2023-03-07T06:43:26.498Z,51.27
2023-03-07T06:45:55.141Z,51.73
2023-03-07T06:48:23.619Z,42.07
2023-03-07T06:50:51.998Z,42.30
2023-03-07T06:53:20.880Z,44.23
2023-03-07T06:55:51.019Z,44.50
2023-03-07T06:58:20.965Z,45.03
2023-03-07T07:00:49.314Z,44.83
2023-03-07T07:03:19.764Z,42.70
2023-03-07T07:05:48.414Z,32.47
2023-03-07T07:08:16.798Z,30.87
2023-03-07T07:10:45.052Z,31.83
2023-03-07T07:13:13.669Z,35.20
2023-03-07T07:15:43.405Z,35.83
2023-03-07T07:18:14.575Z,32.50
2023-03-07T07:20:43.052Z,33.63
2023-03-07T07:23:13.997Z,35.43
2023-03-07T07:25:57.430Z,38.90
2023-03-07T07:28:26.524Z,43.50
2023-03-07T07:30:56.316Z,36.20
2023-03-07T07:33:24.738Z,38.27
2023-03-07T07:35:53.328Z,43.43
2023-03-07T07:38:21.674Z,46.50
2023-03-07T07:40:50.070Z,40.33
2023-03-07T07:43:19.293Z,45.10
2023-03-07T07:45:47.798Z,44.33
2023-03-07T07:48:17.528Z,30.67
2023-03-07T07:50:46.136Z,34.93
2023-03-07T07:53:17.051Z,43.23
2023-03-07T07:55:46.100Z,31.50
2023-03-07T07:58:14.504Z,29.67
2023-03-07T08:00:42.886Z,35.47
2023-03-07T08:03:11.282Z,26.50
2023-03-07T08:05:45.787Z,27.83
2023-03-07T08:08:14.137Z,31.07
2023-03-07T08:10:44.318Z,31.53
2023-03-07T08:13:14.189Z,37.17
2023-03-07T08:15:52.663Z,35.50
2023-03-07T08:18:21.100Z,32.90
2023-03-07T08:20:50.821Z,33.53
2023-03-07T08:23:19.301Z,30.07
2023-03-07T08:25:47.617Z,31.00
2023-03-07T08:28:15.974Z,32.47
2023-03-07T08:30:44.344Z,27.17
2023-03-07T08:33:12.806Z,33.03
2023-03-07T08:35:41.382Z,27.00
2023-03-07T08:38:11.462Z,22.33
2023-03-07T08:40:40.222Z,27.20
2023-03-07T08:43:08.617Z,29.37
2023-03-07T08:45:39.239Z,26.87
2023-03-07T08:48:08.047Z,25.40
2023-03-07T08:50:36.539Z,32.33
2023-03-07T08:53:04.996Z,27.43
2023-03-07T08:55:38.237Z,27.53
2023-03-07T08:58:06.566Z,28.97
2023-03-07T09:00:34.988Z,27.77
2023-03-07T09:03:03.385Z,33.10
2023-03-07T09:05:31.982Z,32.43
2023-03-07T09:08:00.372Z,25.63
2023-03-07T09:10:28.845Z,31.93
2023-03-07T09:12:58.765Z,24.97
2023-03-07T09:15:27.294Z,21.70
2023-03-07T09:17:56.795Z,23.13
2023-03-07T09:20:25.328Z,23.37
2023-03-07T09:22:54.402Z,22.20
2023-03-07T09:25:22.993Z,25.70
2023-03-07T09:27:52.039Z,24.40
2023-03-07T09:30:22.807Z,19.10
2023-03-07T09:32:51.673Z,18.23
2023-03-07T09:35:20.203Z,20.07
2023-03-07T09:37:48.529Z,23.27
2023-03-07T09:40:19.979Z,20.40
2023-03-07T09:42:57.366Z,17.27
2023-03-07T09:45:42.813Z,21.33
2023-03-07T09:48:36.308Z,17.23
2023-03-07T09:51:13.105Z,22.03
2023-03-07T09:53:49.221Z,22.93
2023-03-07T09:56:23.605Z,18.97
2023-03-07T09:58:59.681Z,20.57
2023-03-07T10:01:33.076Z,16.57
2023-03-07T10:04:04.527Z,16.47
2023-03-07T10:06:38.872Z,13.90
2023-03-07T10:09:12.245Z,14.20
2023-03-07T10:12:04.907Z,12.17
2023-03-07T10:14:50.069Z,11.47
2023-03-07T10:17:31.598Z,16.70
2023-03-07T10:20:09.202Z,15.30
2023-03-07T10:22:45.021Z,16.63
2023-03-07T10:25:21.738Z,13.63
2023-03-07T10:27:54.495Z,12.63
2023-03-07T10:30:23.140Z,18.33
2023-03-07T10:32:58.397Z,13.80
2023-03-07T10:35:39.353Z,17.17
2023-03-07T10:38:19.564Z,14.80
2023-03-07T10:40:53.430Z,18.37
2023-03-07T10:43:25.786Z,11.47
2023-03-07T10:45:59.934Z,10.33
2023-03-07T10:48:31.362Z,11.73
2023-03-07T10:51:10.246Z,18.60
2023-03-07T10:53:40.672Z,12.57
2023-03-07T10:56:15.489Z,11.13
2023-03-07T10:59:09.502Z,14.03
2023-03-07T11:01:39.776Z,11.80
2023-03-07T11:04:21.404Z,9.83
2023-03-07T11:06:54.012Z,13.37
2023-03-07T11:09:29.279Z,11.63
2023-03-07T11:12:00.236Z,12.23
2023-03-07T11:14:31.027Z,14.27
2023-03-07T11:17:00.611Z,12.67
2023-03-07T11:19:37.177Z,14.80
2023-03-07T11:22:17.513Z,10.00
2023-03-07T11:24:51.296Z,12.93
2023-03-07T11:27:24.615Z,11.03
2023-03-07T11:30:25.227Z,12.87
2023-03-07T11:33:06.562Z,11.27
2023-03-07T11:35:50.040Z,8.20
2023-03-07T11:38:28.665Z,4.87
2023-03-07T11:41:04.171Z,6.60
2023-03-07T11:43:55.451Z,5.70
2023-03-07T11:46:35.919Z,4.93
2023-03-07T11:49:21.394Z,6.97
2023-03-07T11:52:04.455Z,9.23
2023-03-07T11:54:42.758Z,7.93
2023-03-07T11:57:25.237Z,9.13
2023-03-07T12:00:21.168Z,8.63
2023-03-07T12:03:07.014Z,6.13
2023-03-07T12:05:46.887Z,6.23
2023-03-07T12:08:44.604Z,9.77
2023-03-07T12:11:26.647Z,6.43
2023-03-07T12:14:07.265Z,7.53
2023-03-07T12:16:46.668Z,5.37
2023-03-07T12:19:32.887Z,6.10
2023-03-07T12:22:24.359Z,5.50
2023-03-07T12:25:03.660Z,10.33
2023-03-07T12:27:36.704Z,5.17
2023-03-07T12:30:15.257Z,6.17
2023-03-07T12:32:44.104Z,8.07
2023-03-07T12:35:23.960Z,4.40
2023-03-07T12:37:58.041Z,4.47
2023-03-07T12:40:35.536Z,7.07
2023-03-07T12:43:12.239Z,7.13
2023-03-07T12:45:48.627Z,7.23
2023-03-07T12:48:24.484Z,4.80
2023-03-07T12:51:00.270Z,5.78
2023-03-07T12:53:36.766Z,7.82
2023-03-07T12:56:15.443Z,5.47
2023-03-07T12:58:48.846Z,4.70
2023-03-07T13:01:22.764Z,6.35
2023-03-07T13:03:57.423Z,5.05
2023-03-07T13:06:26.428Z,5.78
2023-03-07T13:08:58.922Z,4.40
2023-03-07T13:11:30.467Z,5.90
2023-03-07T13:14:00.013Z,5.63
2023-03-07T13:16:37.474Z,5.57
2023-03-07T13:19:43.056Z,6.57
2023-03-07T13:22:44.673Z,6.20
2023-03-07T13:25:44.218Z,4.03
2023-03-07T13:28:36.872Z,5.72
2023-03-07T13:31:37.581Z,2.85
2023-03-07T13:34:51.834Z,3.22
2023-03-07T13:37:54.013Z,5.68
2023-03-07T13:40:31.526Z,10.77
2023-03-07T13:42:59.903Z,12.57
2023-03-07T13:46:00.098Z,5.03
2023-03-07T13:49:04.045Z,6.80
2023-03-07T13:51:32.421Z,3.42
2023-03-07T13:54:04.388Z,4.88
2023-03-07T13:56:37.580Z,3.95
2023-03-07T13:59:18.107Z,8.48
2023-03-07T14:01:51.088Z,5.30
2023-03-07T14:04:38.414Z,6.00
2023-03-07T14:07:29.859Z,6.38
2023-03-07T14:10:03.858Z,6.03
2023-03-07T14:12:52.119Z,6.75
2023-03-07T14:15:26.114Z,7.50
2023-03-07T14:18:13.893Z,4.53
2023-03-07T14:20:53.249Z,6.00
2023-03-07T14:23:40.936Z,4.10
2023-03-07T14:26:14.413Z,4.72
2023-03-07T14:28:50.040Z,8.55
2023-03-07T14:31:25.683Z,4.05
2023-03-07T14:33:55.516Z,5.82
2023-03-07T14:36:26.294Z,5.55
2023-03-07T14:38:58.154Z,6.90
2023-03-07T14:41:36.879Z,5.13
2023-03-07T14:44:25.577Z,3.97
2023-03-07T14:47:07.152Z,8.00
2023-03-07T14:49:46.004Z,8.88
2023-03-07T14:52:29.936Z,7.88
2023-03-07T14:55:02.782Z,6.80
2023-03-07T14:57:34.824Z,4.13
2023-03-07T15:00:16.909Z,5.20
2023-03-07T15:02:52.965Z,6.83
2023-03-07T15:05:25.041Z,8.07
2023-03-07T15:07:56.978Z,4.17
2023-03-07T15:10:40.914Z,7.18
2023-03-07T15:13:18.042Z,8.47
2023-03-07T15:16:00.215Z,5.80
2023-03-07T15:18:35.834Z,4.77
2023-03-07T15:21:21.784Z,4.70
2023-03-07T15:23:55.323Z,5.37
2023-03-07T15:26:26.735Z,4.63
2023-03-07T15:29:00.935Z,9.83
2023-03-07T15:31:32.246Z,7.90
2023-03-07T15:34:21.298Z,5.67
2023-03-07T15:36:51.114Z,8.00
2023-03-07T15:39:40.403Z,7.00
2023-03-07T15:42:09.994Z,8.03
2023-03-07T15:44:38.996Z,8.70
2023-03-07T15:47:17.060Z,7.23
2023-03-07T15:49:48.565Z,12.13
2023-03-07T15:52:33.470Z,12.00
2023-03-07T15:55:05.432Z,13.27
2023-03-07T15:57:38.524Z,10.70
2023-03-07T16:00:09.902Z,16.27
2023-03-07T16:02:45.749Z,10.33
2023-03-07T16:05:33.038Z,13.60
2023-03-07T16:08:03.259Z,10.67
2023-03-07T16:10:33.335Z,7.77
2023-03-07T16:13:03.155Z,13.87
2023-03-07T16:15:31.638Z,10.60
2023-03-07T16:18:00.000Z,10.87
2023-03-07T16:20:30.364Z,12.03
2023-03-07T16:22:59.141Z,7.27
2023-03-07T16:25:32.218Z,11.93
2023-03-07T16:28:00.928Z,13.53
2023-03-07T16:30:30.986Z,16.03
2023-03-07T16:32:59.355Z,14.70
2023-03-07T16:35:30.215Z,22.20
2023-03-07T16:37:59.346Z,10.87
2023-03-07T16:40:29.870Z,16.43
2023-03-07T16:42:58.309Z,18.90
2023-03-07T16:45:29.054Z,17.47
2023-03-07T16:47:58.697Z,21.13
2023-03-07T16:50:29.133Z,13.60
2023-03-07T16:52:57.534Z,13.03
2023-03-07T16:55:26.855Z,14.80
2023-03-07T16:58:00.701Z,20.97
2023-03-07T17:00:29.689Z,15.90
2023-03-07T17:03:02.177Z,13.83
2023-03-07T17:05:31.095Z,14.67
2023-03-07T17:08:00.451Z,13.87
2023-03-07T17:10:29.805Z,15.00
2023-03-07T17:13:02.323Z,11.57
2023-03-07T17:15:32.236Z,11.80
2023-03-07T17:18:01.100Z,16.65
2023-03-07T17:20:29.721Z,9.70
2023-03-07T17:22:58.382Z,10.43
2023-03-07T17:25:27.979Z,19.53
2023-03-07T17:28:01.433Z,16.57
2023-03-07T17:30:31.680Z,18.23
2023-03-07T17:33:01.067Z,10.23
2023-03-07T17:35:30.707Z,10.90
2023-03-07T17:37:59.351Z,10.67
2023-03-07T17:40:27.758Z,17.87
2023-03-07T17:42:57.454Z,23.07
2023-03-07T17:45:27.532Z,18.47
2023-03-07T17:47:57.008Z,15.40
2023-03-07T17:50:25.799Z,16.00
2023-03-07T17:52:55.494Z,18.57
2023-03-07T17:55:26.067Z,19.73
2023-03-07T17:57:54.655Z,17.93
2023-03-07T18:00:23.866Z,11.73
2023-03-07T18:02:53.844Z,19.63
2023-03-07T18:05:24.486Z,13.23
2023-03-07T18:07:53.689Z,10.13
2023-03-07T18:10:23.041Z,14.33
2023-03-07T18:12:53.644Z,13.67
2023-03-07T18:15:23.182Z,15.60
2023-03-07T18:17:51.968Z,19.60
2023-03-07T18:20:22.641Z,14.37
2023-03-07T18:22:51.046Z,16.77
2023-03-07T18:25:19.754Z,11.60
2023-03-07T18:27:48.167Z,18.77
2023-03-07T18:30:17.260Z,16.17
2023-03-07T18:32:45.784Z,17.13
2023-03-07T18:35:15.677Z,18.07
2023-03-07T18:37:45.728Z,22.37
2023-03-07T18:40:14.857Z,27.20
2023-03-07T18:42:43.566Z,24.73
2023-03-07T18:45:13.073Z,26.47
2023-03-07T18:47:41.483Z,23.50
2023-03-07T18:50:11.365Z,22.10
2023-03-07T18:52:39.823Z,26.17
2023-03-07T18:55:10.587Z,23.60
2023-03-07T18:57:38.923Z,22.60
2023-03-07T19:00:10.203Z,31.40
2023-03-07T19:02:39.932Z,25.77
2023-03-07T19:05:09.263Z,27.77
2023-03-07T19:07:37.908Z,23.47
2023-03-07T19:10:07.514Z,27.10
2023-03-07T19:12:37.269Z,22.10
2023-03-07T19:15:06.519Z,26.77
2023-03-07T19:17:40.666Z,30.63
2023-03-07T19:20:12.644Z,25.53
2023-03-07T19:22:41.005Z,20.63
2023-03-07T19:25:10.973Z,27.77
2023-03-07T19:27:40.763Z,17.27
2023-03-07T19:30:11.417Z,22.70
2023-03-07T19:32:39.828Z,22.77
2023-03-07T19:35:09.071Z,23.80
2023-03-07T19:37:37.561Z,24.03
2023-03-07T19:40:06.981Z,22.37
2023-03-07T19:42:35.417Z,28.83
2023-03-07T19:45:05.923Z,24.10
2023-03-07T19:47:34.385Z,23.43
2023-03-07T19:50:02.979Z,22.40
2023-03-07T19:52:31.472Z,25.93
2023-03-07T19:54:59.809Z,24.07
2023-03-07T19:57:28.126Z,21.23
2023-03-07T19:59:56.709Z,24.57
2023-03-07T20:02:29.419Z,24.37
2023-03-07T20:04:58.820Z,31.27
2023-03-07T20:07:27.377Z,28.10
2023-03-07T20:09:55.728Z,25.60
2023-03-07T20:12:24.158Z,28.35
2023-03-07T20:14:52.604Z,25.80
2023-03-07T20:17:20.940Z,26.63
2023-03-07T20:19:53.040Z,22.53
2023-03-07T20:22:23.485Z,24.63
2023-03-07T20:24:52.264Z,22.37
2023-03-07T20:27:23.583Z,24.07
2023-03-07T20:29:52.426Z,26.93
2023-03-07T20:32:21.191Z,23.00
2023-03-07T20:34:53.969Z,27.83
2023-03-07T20:37:22.492Z,28.20
2023-03-07T20:39:50.888Z,25.30
2023-03-07T20:42:19.163Z,35.73
2023-03-07T20:44:47.519Z,28.57
2023-03-07T20:47:15.877Z,28.67
2023-03-07T20:49:44.259Z,33.07
2023-03-07T20:52:14.039Z,26.63
2023-03-07T20:54:42.396Z,25.17
2023-03-07T20:57:10.862Z,26.53
2023-03-07T20:59:39.312Z,31.43
2023-03-07T21:02:07.812Z,31.20
2023-03-07T21:04:36.148Z,36.83
2023-03-07T21:07:05.406Z,29.77
2023-03-07T21:09:35.297Z,37.83
2023-03-07T21:12:04.277Z,35.50
2023-03-07T21:14:32.640Z,30.67
2023-03-07T21:17:02.754Z,30.85
2023-03-07T21:19:31.144Z,28.70
2023-03-07T21:22:00.417Z,27.87
2023-03-07T21:24:28.829Z,30.73
2023-03-07T21:26:59.298Z,35.20
2023-03-07T21:29:27.711Z,24.83
2023-03-07T21:31:58.568Z,34.43
2023-03-07T21:34:27.322Z,25.20
2023-03-07T21:36:56.400Z,28.20
2023-03-07T21:39:25.815Z,27.80
2023-03-07T21:41:54.614Z,32.50
2023-03-07T21:44:24.484Z,27.77
2023-03-07T21:46:52.806Z,26.77
2023-03-07T21:49:21.132Z,29.97
2023-03-07T21:51:49.472Z,28.63
2023-03-07T21:54:17.839Z,21.93
2023-03-07T21:56:46.312Z,22.67
2023-03-07T21:59:14.619Z,23.43
2023-03-07T22:01:44.438Z,23.50
2023-03-07T22:04:12.821Z,25.10
2023-03-07T22:06:41.268Z,21.50
2023-03-07T22:09:09.519Z,24.00
2023-03-07T22:11:37.877Z,28.20
2023-03-07T22:14:06.292Z,20.20
2023-03-07T22:16:34.859Z,26.03
2023-03-07T22:19:04.743Z,23.47
2023-03-07T22:21:33.142Z,20.00
2023-03-07T22:24:01.597Z,19.83
2023-03-07T22:26:31.732Z,23.90
2023-03-07T22:29:00.737Z,17.87
2023-03-07T22:31:29.313Z,23.93
2023-03-07T22:33:58.836Z,19.67
2023-03-07T22:36:28.720Z,17.83
2023-03-07T22:38:57.523Z,18.77
2023-03-07T22:41:27.037Z,16.57
2023-03-07T22:43:55.697Z,18.23
2023-03-07T22:46:24.423Z,17.37
2023-03-07T22:48:57.268Z,18.30
2023-03-07T22:51:27.931Z,18.00
2023-03-07T22:53:56.547Z,19.07
2023-03-07T22:56:26.941Z,14.77
2023-03-07T22:58:55.438Z,17.73
2023-03-07T23:01:26.501Z,15.93
2023-03-07T23:03:56.029Z,16.97
2023-03-07T23:06:25.649Z,15.00
2023-03-07T23:08:55.411Z,18.13
2023-03-07T23:11:25.275Z,17.17
2023-03-07T23:13:54.261Z,16.93
2023-03-07T23:16:24.507Z,22.03
2023-03-07T23:18:55.096Z,15.27
2023-03-07T23:21:25.723Z,15.47
2023-03-07T23:23:56.178Z,14.67
2023-03-07T23:26:27.544Z,21.23
2023-03-07T23:28:56.152Z,13.10
2023-03-07T23:31:26.832Z,15.10
2023-03-07T23:33:56.991Z,16.97
2023-03-07T23:36:25.609Z,17.93
2023-03-07T23:38:55.652Z,19.27
2023-03-07T23:41:24.392Z,17.43
2023-03-07T23:43:53.275Z,19.60
2023-03-07T23:46:21.867Z,19.47
2023-03-07T23:48:50.589Z,24.30
2023-03-07T23:51:19.282Z,19.23
2023-03-07T23:53:47.674Z,19.30
2023-03-07T23:56:17.861Z,22.63
2023-03-07T23:58:49.336Z,25.07
